Time,TemperatureF,DewpointF,PressureIn,WindDirection,WindDirectionDegrees,WindSpeedMPH,WindSpeedGustMPH,Humidity,HourlyPrecipIn,Conditions,Clouds,dailyrainin,SoftwareType,DateUTC
2013-03-22 00:04:00,47.4,25.0,29.76,WNW,294,8.0,18.0,42,0.00,,,0.00,weatherlink.com 1.10,2013-03-22 07:04:00,
2013-03-22 00:19:00,46.5,30.0,29.76,NW,304,11.0,17.0,53,0.00,,,0.00,weatherlink.com 1.10,2013-03-22 07:19:00,
2013-03-22 00:34:00,46.3,27.0,29.75,NW,308,8.0,17.0,48,0.00,,,0.00,weatherlink.com 1.10,2013-03-22 07:34:00,
2013-03-22 00:49:00,47.0,26.0,29.75,NW,325,11.0,17.0,44,0.00,,,0.00,weatherlink.com 1.10,2013-03-22 07:49:00,
2013-03-22 01:04:00,46.9,25.0,29.75,WNW,298,8.0,17.0,43,0.00,,,0.00,weatherlink.com 1.10,2013-03-22 08:04:00,
2013-03-22 01:19:00,46.8,27.0,29.75,WNW,293,10.0,16.0,46,0.00,,,0.00,weatherlink.com 1.10,2013-03-22 08:19:00,
2013-03-22 01:34:00,46.0,28.0,29.75,NNW,342,9.0,17.0,50,0.00,,,0.00,weatherlink.com 1.10,2013-03-22 08:34:00,
2013-03-22 01:49:00,45.0,33.0,29.75,WNW,292,7.0,15.0,63,0.00,,,0.00,weatherlink.com 1.10,2013-03-22 08:49:00,
2013-03-22 02:05:00,44.5,34.0,29.73,NW,315,6.0,14.0,68,0.00,,,0.00,weatherlink.com 1.10,2013-03-22 09:05:00,
2013-03-22 02:20:00,44.2,35.0,29.73,NNW,327,8.0,18.0,70,0.00,,,0.00,weatherlink.com 1.10,2013-03-22 09:20:00,
2013-03-22 02:35:00,44.5,31.0,29.73,NW,325,14.0,19.0,59,0.00,,,0.00,weatherlink.com 1.10,2013-03-22 09:35:00,
2013-03-22 02:50:00,44.3,28.0,29.71,WNW,302,8.0,21.0,54,0.00,,,0.00,weatherlink.com 1.10,2013-03-22 09:50:00,
2013-03-22 03:05:00,44.3,27.0,29.70,WNW,303,11.0,16.0,51,0.00,,,0.00,weatherlink.com 1.10,2013-03-22 10:05:00,
2013-03-22 03:20:00,44.0,28.0,29.69,West,261,5.0,19.0,53,0.00,,,0.00,weatherlink.com 1.10,2013-03-22 10:20:00,
2013-03-22 03:35:00,44.3,25.0,29.69,NW,315,10.0,21.0,46,0.00,,,0.00,weatherlink.com 1.10,2013-03-22 10:35:00,
2013-03-22 03:50:00,43.9,16.0,29.69,West,274,9.0,19.0,32,0.00,,,0.00,weatherlink.com 1.10,2013-03-22 10:50:00,
2013-03-22 04:05:00,44.5,14.0,29.69,WNW,286,11.0,22.0,29,0.00,,,0.00,weatherlink.com 1.10,2013-03-22 11:05:00,
2013-03-22 04:20:00,44.5,15.0,29.70,WNW,293,6.0,20.0,31,0.00,,,0.00,weatherlink.com 1.10,2013-03-22 11:20:00,
2013-03-22 04:35:00,44.7,15.0,29.70,West,279,7.0,25.0,30,0.00,,,0.00,weatherlink.com 1.10,2013-03-22 11:35:00,
2013-03-22 04:50:00,44.2,15.0,29.69,West,280,4.0,16.0,31,0.00,,,0.00,weatherlink.com 1.10,2013-03-22 11:50:00,
2013-03-22 05:05:00,44.0,13.0,29.71,NNW,334,6.0,14.0,29,0.00,,,0.00,weatherlink.com 1.10,2013-03-22 12:05:00,
2013-03-22 05:20:00,44.2,12.0,29.70,NW,316,11.0,15.0,27,0.00,,,0.00,weatherlink.com 1.10,2013-03-22 12:20:00,
2013-03-22 05:35:00,44.6,12.0,29.70,WNW,295,8.0,13.0,27,0.00,,,0.00,weatherlink.com 1.10,2013-03-22 12:35:00,
2013-03-22 05:50:00,44.6,14.0,29.71,NNW,338,7.0,12.0,29,0.00,,,0.00,weatherlink.com 1.10,2013-03-22 12:50:00,
2013-03-22 06:05:00,43.5,16.0,29.71,North,355,5.0,11.0,33,0.00,,,0.00,weatherlink.com 1.10,2013-03-22 13:05:00,
2013-03-22 06:20:00,43.3,17.0,29.71,North,10,6.0,11.0,34,0.00,,,0.00,weatherlink.com 1.10,2013-03-22 13:20:00,
2013-03-22 06:35:00,44.7,19.0,29.72,NE,40,13.0,17.0,36,0.00,,,0.00,weatherlink.com 1.10,2013-03-22 13:35:00,
2013-03-22 06:50:00,46.8,19.0,29.73,East,87,3.0,11.0,33,0.00,,,0.00,weatherlink.com 1.10,2013-03-22 13:50:00,
2013-03-22 07:05:00,45.6,19.0,29.73,North,5,4.0,9.0,35,0.00,,,0.00,weatherlink.com 1.10,2013-03-22 14:05:00,
2013-03-22 07:20:00,44.6,20.0,29.74,NNE,29,4.0,9.0,38,0.00,,,0.00,weatherlink.com 1.10,2013-03-22 14:20:00,
2013-03-22 07:35:00,44.8,21.0,29.74,NNE,16,5.0,8.0,39,0.00,,,0.00,weatherlink.com 1.10,2013-03-22 14:35:00,
2013-03-22 07:50:00,47.6,21.0,29.75,North,5,7.0,9.0,35,0.00,,,0.00,weatherlink.com 1.10,2013-03-22 14:50:00,
2013-03-22 08:05:00,50.5,20.0,29.75,NNW,342,7.0,10.0,30,0.00,,,0.00,weatherlink.com 1.10,2013-03-22 15:05:00,
2013-03-22 08:20:00,52.4,20.0,29.76,NNE,31,4.0,10.0,28,0.00,,,0.00,weatherlink.com 1.10,2013-03-22 15:20:00,
2013-03-22 08:35:00,54.3,18.0,29.77,NNE,15,8.0,18.0,24,0.00,,,0.00,weatherlink.com 1.10,2013-03-22 15:35:00,
2013-03-22 08:50:00,55.4,20.0,29.77,NE,53,8.0,13.0,25,0.00,,,0.00,weatherlink.com 1.10,2013-03-22 15:50:00,
2013-03-22 09:05:00,56.0,19.0,29.78,North,360,12.0,12.0,24,0.00,,,0.00,weatherlink.com 1.10,2013-03-22 16:05:00,
2013-03-22 09:21:00,56.0,19.0,29.78,NNE,26,3.0,12.0,24,0.00,,,0.00,weatherlink.com 1.10,2013-03-22 16:21:00,
2013-03-22 09:35:00,56.6,19.0,29.78,NE,38,8.0,12.0,23,0.00,,,0.00,weatherlink.com 1.10,2013-03-22 16:35:00,
2013-03-22 09:51:00,57.1,17.0,29.79,NNE,16,8.0,12.0,21,0.00,,,0.00,weatherlink.com 1.10,2013-03-22 16:51:00,
2013-03-22 10:06:00,57.2,20.0,29.79,NNW,348,11.0,12.0,23,0.00,,,0.00,weatherlink.com 1.10,2013-03-22 17:06:00,
2013-03-22 10:21:00,57.8,19.0,29.80,NNW,344,9.0,13.0,22,0.00,,,0.00,weatherlink.com 1.10,2013-03-22 17:21:00,
2013-03-22 10:36:00,59.0,21.0,29.80,ENE,71,4.0,11.0,23,0.00,,,0.00,weatherlink.com 1.10,2013-03-22 17:36:00,
2013-03-22 11:51:00,60.4,25.0,29.81,North,9,6.0,16.0,26,0.00,,,0.00,weatherlink.com 1.10,2013-03-22 18:51:00,
2013-03-22 12:06:00,60.5,26.0,29.82,North,355,14.0,16.0,27,0.00,,,0.00,weatherlink.com 1.10,2013-03-22 19:06:00,
2013-03-22 12:21:00,61.2,26.0,29.82,North,9,6.0,16.0,26,0.00,,,0.00,weatherlink.com 1.10,2013-03-22 19:21:00,
2013-03-22 12:36:00,61.8,25.0,29.82,ENE,65,9.0,12.0,25,0.00,,,0.00,weatherlink.com 1.10,2013-03-22 19:36:00,
2013-03-22 12:51:00,62.0,27.0,29.82,NE,37,3.0,11.0,26,0.00,,,0.00,weatherlink.com 1.10,2013-03-22 19:51:00,
2013-03-22 13:06:00,61.8,26.0,29.82,NE,34,5.0,10.0,26,0.00,,,0.00,weatherlink.com 1.10,2013-03-22 20:06:00,
2013-03-22 13:21:00,62.2,27.0,29.82,East,100,7.0,9.0,26,0.00,,,0.00,weatherlink.com 1.10,2013-03-22 20:21:00,
2013-03-22 13:36:00,62.6,27.0,29.82,NNW,329,7.0,10.0,26,0.00,,,0.00,weatherlink.com 1.10,2013-03-22 20:36:00,
2013-03-22 13:51:00,63.1,26.0,29.81,North,355,6.0,9.0,24,0.00,,,0.00,weatherlink.com 1.10,2013-03-22 20:51:00,
2013-03-22 14:06:00,63.2,27.0,29.82,NNW,339,5.0,13.0,25,0.00,,,0.00,weatherlink.com 1.10,2013-03-22 21:06:00,
2013-03-22 14:21:00,61.9,33.0,29.81,WNW,287,5.0,10.0,34,0.00,,,0.00,weatherlink.com 1.10,2013-03-22 21:21:00,
2013-03-22 14:36:00,60.0,35.0,29.81,SW,224,4.0,9.0,39,0.00,,,0.00,weatherlink.com 1.10,2013-03-22 21:36:00,
2013-03-22 14:51:00,59.5,36.0,29.81,SW,230,4.0,15.0,42,0.00,,,0.00,weatherlink.com 1.10,2013-03-22 21:51:00,
2013-03-22 15:06:00,62.5,34.0,29.81,South,186,8.0,15.0,35,0.00,,,0.00,weatherlink.com 1.10,2013-03-22 22:06:00,
2013-03-22 15:21:00,61.1,41.0,29.80,SSW,213,6.0,16.0,47,0.00,,,0.00,weatherlink.com 1.10,2013-03-22 22:21:00,
2013-03-22 15:36:00,61.5,35.0,29.80,South,169,4.0,7.0,37,0.00,,,0.00,weatherlink.com 1.10,2013-03-22 22:36:00,
2013-03-22 15:51:00,64.7,33.0,29.80,NW,326,2.0,7.0,31,0.00,,,0.00,weatherlink.com 1.10,2013-03-22 22:51:00,
2013-03-22 16:06:00,65.5,31.0,29.80,NNE,19,2.0,9.0,28,0.00,,,0.00,weatherlink.com 1.10,2013-03-22 23:06:00,
2013-03-22 16:21:00,63.1,41.0,29.79,WNW,287,6.0,10.0,44,0.00,,,0.00,weatherlink.com 1.10,2013-03-22 23:21:00,
2013-03-22 16:36:00,60.5,39.0,29.79,WSW,237,4.0,12.0,46,0.00,,,0.00,weatherlink.com 1.10,2013-03-22 23:36:00,
2013-03-22 16:51:00,59.5,39.0,29.80,WNW,292,8.0,12.0,47,0.00,,,0.00,weatherlink.com 1.10,2013-03-22 23:51:00,
2013-03-22 17:06:00,58.5,36.0,29.80,West,259,7.0,12.0,43,0.00,,,0.00,weatherlink.com 1.10,2013-03-23 00:06:00,
2013-03-22 17:21:00,58.3,38.0,29.80,West,263,6.0,10.0,47,0.00,,,0.00,weatherlink.com 1.10,2013-03-23 00:21:00,
2013-03-22 17:36:00,57.1,40.0,29.80,WNW,285,6.0,11.0,54,0.00,,,0.00,weatherlink.com 1.10,2013-03-23 00:36:00,
2013-03-22 17:51:00,56.2,41.0,29.80,WNW,296,4.0,12.0,57,0.00,,,0.00,weatherlink.com 1.10,2013-03-23 00:51:00,
2013-03-22 18:21:00,53.4,35.0,29.81,West,271,6.0,8.0,50,0.00,,,0.00,weatherlink.com 1.10,2013-03-23 01:21:00,
2013-03-22 18:36:00,50.9,33.0,29.81,WNW,294,3.0,10.0,50,0.00,,,0.00,weatherlink.com 1.10,2013-03-23 01:36:00,
2013-03-22 18:51:00,49.5,32.0,29.82,WNW,287,2.0,12.0,51,0.00,,,0.00,weatherlink.com 1.10,2013-03-23 01:51:00,
2013-03-22 19:06:00,48.1,29.0,29.82,WNW,288,3.0,7.0,48,0.00,,,0.00,weatherlink.com 1.10,2013-03-23 02:06:00,
2013-03-22 19:21:00,47.4,27.0,29.83,WNW,292,5.0,9.0,46,0.00,,,0.00,weatherlink.com 1.10,2013-03-23 02:21:00,
2013-03-22 19:36:00,47.0,25.0,29.83,West,281,7.0,9.0,43,0.00,,,0.00,weatherlink.com 1.10,2013-03-23 02:36:00,
2013-03-22 19:51:00,46.7,25.0,29.84,WNW,296,3.0,8.0,43,0.00,,,0.00,weatherlink.com 1.10,2013-03-23 02:51:00,
2013-03-22 20:07:00,46.0,26.0,29.84,WNW,298,4.0,7.0,45,0.00,,,0.00,weatherlink.com 1.10,2013-03-23 03:07:00,
2013-03-22 20:21:00,46.0,24.0,29.84,NW,309,4.0,10.0,43,0.00,,,0.00,weatherlink.com 1.10,2013-03-23 03:21:00,
2013-03-22 20:36:00,46.3,24.0,29.85,NW,323,5.0,10.0,42,0.00,,,0.00,weatherlink.com 1.10,2013-03-23 03:36:00,
2013-03-22 20:52:00,47.0,29.0,29.86,NNW,331,4.0,12.0,49,0.00,,,0.00,weatherlink.com 1.10,2013-03-23 03:52:00,
2013-03-22 21:06:00,46.5,31.0,29.86,NW,321,7.0,13.0,55,0.00,,,0.00,weatherlink.com 1.10,2013-03-23 04:06:00,
2013-03-22 21:21:00,46.6,30.0,29.86,NW,322,5.0,14.0,53,0.00,,,0.00,weatherlink.com 1.10,2013-03-23 04:21:00,
2013-03-22 21:36:00,46.7,31.0,29.87,West,278,3.0,14.0,55,0.00,,,0.00,weatherlink.com 1.10,2013-03-23 04:36:00,
2013-03-22 21:52:00,45.6,30.0,29.87,NW,311,4.0,11.0,54,0.00,,,0.00,weatherlink.com 1.10,2013-03-23 04:52:00,
2013-03-22 22:07:00,45.0,26.0,29.88,WNW,302,5.0,10.0,47,0.00,,,0.00,weatherlink.com 1.10,2013-03-23 05:07:00,
2013-03-22 22:22:00,44.5,21.0,29.88,WNW,286,5.0,12.0,40,0.00,,,0.00,weatherlink.com 1.10,2013-03-23 05:22:00,
2013-03-22 22:37:00,45.2,20.0,29.88,WNW,302,8.0,13.0,37,0.00,,,0.00,weatherlink.com 1.10,2013-03-23 05:37:00,
2013-03-22 22:52:00,45.8,17.0,29.89,NW,319,7.0,12.0,31,0.00,,,0.00,weatherlink.com 1.10,2013-03-23 05:52:00,
2013-03-22 23:07:00,46.5,16.0,29.89,WNW,297,4.0,9.0,29,0.00,,,0.00,weatherlink.com 1.10,2013-03-23 06:07:00,
2013-03-22 23:22:00,45.8,15.0,29.89,WNW,296,6.0,8.0,29,0.00,,,0.00,weatherlink.com 1.10,2013-03-23 06:22:00,
2013-03-22 23:37:00,45.4,14.0,29.90,WNW,299,2.0,7.0,28,0.00,,,0.00,weatherlink.com 1.10,2013-03-23 06:37:00,
2013-03-22 23:52:00,45.8,12.0,29.90,West,277,8.0,15.0,25,0.00,,,0.00,weatherlink.com 1.10,2013-03-23 06:52:00,